sensor_id;sensor_type;location;lat;lon;timestamp;P1;durP1;ratioP1;P2;durP2;ratioP2
61640;SDS011;62201;49.966;8.342;2024-03-23T00:55:43;15.38;;;11.43;;
61640;SDS011;62201;49.966;8.342;2024-03-23T00:58:09;20.10;;;12.50;;
61640;SDS011;62201;49.966;8.342;2024-03-23T01:00:34;20.85;;;12.80;;
61640;SDS011;62201;49.966;8.342;2024-03-23T01:03:00;22.73;;;13.20;;
61640;SDS011;62201;49.966;8.342;2024-03-23T01:05:25;19.30;;;12.10;;
61640;SDS011;62201;49.966;8.342;2024-03-23T01:07:51;20.92;;;13.88;;
61640;SDS011;62201;49.966;8.342;2024-03-23T01:10:16;21.98;;;14.30;;
61640;SDS011;62201;49.966;8.342;2024-03-23T01:12:41;24.90;;;15.52;;
61640;SDS011;62201;49.966;8.342;2024-03-23T01:15:07;23.65;;;15.48;;
61640;SDS011;62201;49.966;8.342;2024-03-23T01:17:33;25.10;;;17.85;;
61640;SDS011;62201;49.966;8.342;2024-03-23T01:19:58;27.85;;;17.90;;
61640;SDS011;62201;49.966;8.342;2024-03-23T01:22:23;25.65;;;18.15;;
61640;SDS011;62201;49.966;8.342;2024-03-23T01:24:49;31.00;;;19.17;;
61640;SDS011;62201;49.966;8.342;2024-03-23T01:27:14;28.52;;;19.35;;
61640;SDS011;62201;49.966;8.342;2024-03-23T01:29:39;30.02;;;20.55;;
61640;SDS011;62201;49.966;8.342;2024-03-23T01:32:05;32.17;;;19.83;;
61640;SDS011;62201;49.966;8.342;2024-03-23T01:34:31;32.33;;;21.40;;
61640;SDS011;62201;49.966;8.342;2024-03-23T01:36:57;33.28;;;22.13;;
61640;SDS011;62201;49.966;8.342;2024-03-23T01:39:22;33.67;;;21.73;;
61640;SDS011;62201;49.966;8.342;2024-03-23T01:41:48;28.08;;;20.45;;
61640;SDS011;62201;49.966;8.342;2024-03-23T01:44:13;32.60;;;21.20;;
61640;SDS011;62201;49.966;8.342;2024-03-23T01:46:38;34.45;;;21.60;;
61640;SDS011;62201;49.966;8.342;2024-03-23T01:49:06;32.33;;;21.35;;
61640;SDS011;62201;49.966;8.342;2024-03-23T01:51:32;34.38;;;22.73;;
61640;SDS011;62201;49.966;8.342;2024-03-23T01:53:59;38.95;;;24.15;;
61640;SDS011;62201;49.966;8.342;2024-03-23T01:56:27;33.47;;;21.83;;
61640;SDS011;62201;49.966;8.342;2024-03-23T01:58:53;38.22;;;22.27;;
61640;SDS011;62201;49.966;8.342;2024-03-23T02:01:19;36.10;;;23.95;;
61640;SDS011;62201;49.966;8.342;2024-03-23T02:03:44;41.50;;;23.73;;
61640;SDS011;62201;49.966;8.342;2024-03-23T02:06:09;34.50;;;22.38;;
61640;SDS011;62201;49.966;8.342;2024-03-23T02:08:35;39.55;;;24.13;;
61640;SDS011;62201;49.966;8.342;2024-03-23T02:11:00;36.53;;;23.63;;
61640;SDS011;62201;49.966;8.342;2024-03-23T02:13:26;36.05;;;22.50;;
61640;SDS011;62201;49.966;8.342;2024-03-23T02:15:51;34.78;;;21.55;;
61640;SDS011;62201;49.966;8.342;2024-03-23T02:18:17;36.00;;;22.40;;
61640;SDS011;62201;49.966;8.342;2024-03-23T02:20:42;33.08;;;21.52;;
61640;SDS011;62201;49.966;8.342;2024-03-23T02:23:14;32.85;;;21.10;;
61640;SDS011;62201;49.966;8.342;2024-03-23T02:25:41;38.03;;;22.10;;
61640;SDS011;62201;49.966;8.342;2024-03-23T02:28:06;36.47;;;21.10;;
61640;SDS011;62201;49.966;8.342;2024-03-23T02:30:32;33.20;;;20.52;;
61640;SDS011;62201;49.966;8.342;2024-03-23T02:32:57;33.13;;;21.00;;
61640;SDS011;62201;49.966;8.342;2024-03-23T02:35:22;32.72;;;21.23;;
61640;SDS011;62201;49.966;8.342;2024-03-23T02:37:48;35.40;;;20.33;;
61640;SDS011;62201;49.966;8.342;2024-03-23T02:40:14;31.17;;;18.88;;
61640;SDS011;62201;49.966;8.342;2024-03-23T02:42:40;28.80;;;18.25;;
61640;SDS011;62201;49.966;8.342;2024-03-23T02:45:06;25.48;;;17.48;;
61640;SDS011;62201;49.966;8.342;2024-03-23T02:47:32;25.85;;;18.05;;
61640;SDS011;62201;49.966;8.342;2024-03-23T02:49:57;29.08;;;18.23;;
61640;SDS011;62201;49.966;8.342;2024-03-23T02:52:23;30.05;;;19.27;;
61640;SDS011;62201;49.966;8.342;2024-03-23T02:54:48;28.98;;;17.88;;
61640;SDS011;62201;49.966;8.342;2024-03-23T02:57:14;28.38;;;17.98;;
61640;SDS011;62201;49.966;8.342;2024-03-23T02:59:39;28.73;;;17.98;;
61640;SDS011;62201;49.966;8.342;2024-03-23T03:02:04;26.25;;;17.98;;
61640;SDS011;62201;49.966;8.342;2024-03-23T03:04:30;32.60;;;19.70;;
61640;SDS011;62201;49.966;8.342;2024-03-23T03:06:56;28.42;;;18.33;;
61640;SDS011;62201;49.966;8.342;2024-03-23T03:09:21;25.73;;;17.83;;
61640;SDS011;62201;49.966;8.342;2024-03-23T03:11:47;27.90;;;18.17;;
61640;SDS011;62201;49.966;8.342;2024-03-23T03:14:12;24.13;;;16.23;;
61640;SDS011;62201;49.966;8.342;2024-03-23T03:16:38;28.85;;;17.95;;
61640;SDS011;62201;49.966;8.342;2024-03-23T03:19:03;25.63;;;17.38;;
61640;SDS011;62201;49.966;8.342;2024-03-23T03:21:28;28.83;;;18.38;;
61640;SDS011;62201;49.966;8.342;2024-03-23T03:23:54;27.83;;;19.33;;
61640;SDS011;62201;49.966;8.342;2024-03-23T03:26:21;25.77;;;18.40;;
61640;SDS011;62201;49.966;8.342;2024-03-23T03:28:47;29.10;;;18.20;;
61640;SDS011;62201;49.966;8.342;2024-03-23T03:31:14;24.27;;;16.92;;
61640;SDS011;62201;49.966;8.342;2024-03-23T03:33:40;24.40;;;15.45;;
61640;SDS011;62201;49.966;8.342;2024-03-23T03:36:05;24.80;;;15.65;;
61640;SDS011;62201;49.966;8.342;2024-03-23T03:38:31;19.85;;;14.57;;
61640;SDS011;62201;49.966;8.342;2024-03-23T03:40:56;18.80;;;13.63;;
61640;SDS011;62201;49.966;8.342;2024-03-23T03:43:23;20.15;;;13.88;;
61640;SDS011;62201;49.966;8.342;2024-03-23T03:45:56;20.42;;;14.32;;
61640;SDS011;62201;49.966;8.342;2024-03-23T03:48:22;19.48;;;13.68;;
61640;SDS011;62201;49.966;8.342;2024-03-23T03:50:47;17.23;;;12.80;;
61640;SDS011;62201;49.966;8.342;2024-03-23T03:53:14;20.55;;;12.13;;
61640;SDS011;62201;49.966;8.342;2024-03-23T03:55:40;17.95;;;13.07;;
61640;SDS011;62201;49.966;8.342;2024-03-23T03:58:05;18.00;;;12.00;;
61640;SDS011;62201;49.966;8.342;2024-03-23T04:00:31;16.50;;;11.30;;
61640;SDS011;62201;49.966;8.342;2024-03-23T04:02:56;18.73;;;12.80;;
61640;SDS011;62201;49.966;8.342;2024-03-23T04:05:22;18.90;;;13.32;;
61640;SDS011;62201;49.966;8.342;2024-03-23T04:07:47;21.55;;;12.52;;
61640;SDS011;62201;49.966;8.342;2024-03-23T04:10:13;21.33;;;11.40;;
61640;SDS011;62201;49.966;8.342;2024-03-23T04:12:40;23.48;;;11.27;;
61640;SDS011;62201;49.966;8.342;2024-03-23T04:15:08;17.23;;;11.45;;
61640;SDS011;62201;49.966;8.342;2024-03-23T04:17:34;7.13;;;4.78;;
61640;SDS011;62201;49.966;8.342;2024-03-23T04:20:00;7.65;;;3.30;;
61640;SDS011;62201;49.966;8.342;2024-03-23T04:22:26;4.05;;;2.28;;
61640;SDS011;62201;49.966;8.342;2024-03-23T04:24:55;4.43;;;2.20;;
61640;SDS011;62201;49.966;8.342;2024-03-23T04:27:22;3.75;;;2.25;;
61640;SDS011;62201;49.966;8.342;2024-03-23T04:29:50;6.40;;;2.17;;
61640;SDS011;62201;49.966;8.342;2024-03-23T04:32:17;3.53;;;2.17;;
61640;SDS011;62201;49.966;8.342;2024-03-23T04:34:43;4.32;;;2.13;;
61640;SDS011;62201;49.966;8.342;2024-03-23T04:37:08;3.20;;;1.70;;
61640;SDS011;62201;49.966;8.342;2024-03-23T04:39:35;2.53;;;1.33;;
61640;SDS011;62201;49.966;8.342;2024-03-23T04:42:01;1.83;;;0.90;;
61640;SDS011;62201;49.966;8.342;2024-03-23T04:44:27;1.00;;;0.80;;
61640;SDS011;62201;49.966;8.342;2024-03-23T04:46:53;1.97;;;1.10;;
61640;SDS011;62201;49.966;8.342;2024-03-23T04:49:18;1.77;;;1.00;;
61640;SDS011;62201;49.966;8.342;2024-03-23T04:51:44;3.13;;;1.00;;
61640;SDS011;62201;49.966;8.342;2024-03-23T04:54:11;4.40;;;0.80;;
61640;SDS011;62201;49.966;8.342;2024-03-23T04:56:37;2.67;;;0.70;;
61640;SDS011;62201;49.966;8.342;2024-03-23T04:59:02;2.10;;;0.70;;
61640;SDS011;62201;49.966;8.342;2024-03-23T05:01:30;4.90;;;1.63;;
61640;SDS011;62201;49.966;8.342;2024-03-23T05:03:56;1.67;;;0.70;;
61640;SDS011;62201;49.966;8.342;2024-03-23T05:06:22;3.97;;;1.00;;
61640;SDS011;62201;49.966;8.342;2024-03-23T05:08:47;1.30;;;0.80;;
61640;SDS011;62201;49.966;8.342;2024-03-23T05:11:13;1.10;;;1.00;;
61640;SDS011;62201;49.966;8.342;2024-03-23T05:13:38;3.40;;;1.57;;
61640;SDS011;62201;49.966;8.342;2024-03-23T05:16:04;1.47;;;1.20;;
61640;SDS011;62201;49.966;8.342;2024-03-23T05:18:29;2.73;;;1.20;;
61640;SDS011;62201;49.966;8.342;2024-03-23T05:20:56;3.03;;;1.63;;
61640;SDS011;62201;49.966;8.342;2024-03-23T05:23:24;1.77;;;1.37;;
61640;SDS011;62201;49.966;8.342;2024-03-23T05:25:50;1.57;;;1.40;;
61640;SDS011;62201;49.966;8.342;2024-03-23T05:28:16;3.10;;;1.80;;
61640;SDS011;62201;49.966;8.342;2024-03-23T05:30:42;1.30;;;1.20;;
61640;SDS011;62201;49.966;8.342;2024-03-23T05:33:08;2.27;;;1.63;;
61640;SDS011;62201;49.966;8.342;2024-03-23T05:35:33;3.63;;;1.53;;
61640;SDS011;62201;49.966;8.342;2024-03-23T05:37:58;8.33;;;1.57;;
61640;SDS011;62201;49.966;8.342;2024-03-23T05:40:25;5.43;;;1.20;;
61640;SDS011;62201;49.966;8.342;2024-03-23T05:42:51;3.67;;;1.10;;
61640;SDS011;62201;49.966;8.342;2024-03-23T05:45:20;17.00;;;1.70;;
61640;SDS011;62201;49.966;8.342;2024-03-23T05:47:47;10.60;;;1.77;;
61640;SDS011;62201;49.966;8.342;2024-03-23T05:50:13;8.40;;;1.43;;
61640;SDS011;62201;49.966;8.342;2024-03-23T05:52:38;5.43;;;1.10;;
61640;SDS011;62201;49.966;8.342;2024-03-23T05:55:04;6.17;;;1.30;;
61640;SDS011;62201;49.966;8.342;2024-03-23T05:57:30;1.50;;;1.00;;
61640;SDS011;62201;49.966;8.342;2024-03-23T05:59:56;10.70;;;1.47;;
61640;SDS011;62201;49.966;8.342;2024-03-23T06:02:22;5.07;;;1.10;;
61640;SDS011;62201;49.966;8.342;2024-03-23T06:04:47;1.27;;;0.50;;
61640;SDS011;62201;49.966;8.342;2024-03-23T06:07:13;3.30;;;0.83;;
61640;SDS011;62201;49.966;8.342;2024-03-23T06:09:41;1.03;;;0.60;;
61640;SDS011;62201;49.966;8.342;2024-03-23T06:12:07;1.63;;;0.60;;
61640;SDS011;62201;49.966;8.342;2024-03-23T06:14:33;0.80;;;0.40;;
61640;SDS011;62201;49.966;8.342;2024-03-23T06:16:59;0.50;;;0.30;;
61640;SDS011;62201;49.966;8.342;2024-03-23T06:19:25;3.03;;;0.57;;
61640;SDS011;62201;49.966;8.342;2024-03-23T06:21:53;0.90;;;0.50;;
61640;SDS011;62201;49.966;8.342;2024-03-23T06:24:20;1.43;;;0.50;;
61640;SDS011;62201;49.966;8.342;2024-03-23T06:26:49;0.50;;;0.47;;
61640;SDS011;62201;49.966;8.342;2024-03-23T06:29:15;0.60;;;0.60;;
61640;SDS011;62201;49.966;8.342;2024-03-23T06:31:40;1.03;;;0.40;;
61640;SDS011;62201;49.966;8.342;2024-03-23T06:34:05;1.40;;;0.60;;
61640;SDS011;62201;49.966;8.342;2024-03-23T06:36:31;2.13;;;0.53;;
61640;SDS011;62201;49.966;8.342;2024-03-23T06:38:56;0.50;;;0.50;;
61640;SDS011;62201;49.966;8.342;2024-03-23T06:41:22;0.70;;;0.50;;
61640;SDS011;62201;49.966;8.342;2024-03-23T06:43:48;1.90;;;0.60;;
61640;SDS011;62201;49.966;8.342;2024-03-23T06:46:13;0.70;;;0.40;;
61640;SDS011;62201;49.966;8.342;2024-03-23T06:48:38;3.30;;;0.77;;
61640;SDS011;62201;49.966;8.342;2024-03-23T06:51:04;2.83;;;0.70;;
61640;SDS011;62201;49.966;8.342;2024-03-23T06:53:29;2.83;;;0.57;;
61640;SDS011;62201;49.966;8.342;2024-03-23T06:55:55;3.80;;;0.90;;
61640;SDS011;62201;49.966;8.342;2024-03-23T06:58:21;1.33;;;0.60;;
61640;SDS011;62201;49.966;8.342;2024-03-23T07:00:48;2.17;;;0.80;;
61640;SDS011;62201;49.966;8.342;2024-03-23T07:03:14;2.13;;;0.77;;
61640;SDS011;62201;49.966;8.342;2024-03-23T07:05:40;2.07;;;0.93;;
61640;SDS011;62201;49.966;8.342;2024-03-23T07:08:05;1.73;;;0.87;;
61640;SDS011;62201;49.966;8.342;2024-03-23T07:10:31;5.27;;;1.00;;
61640;SDS011;62201;49.966;8.342;2024-03-23T07:12:56;6.37;;;1.20;;
61640;SDS011;62201;49.966;8.342;2024-03-23T07:15:22;5.63;;;1.50;;
61640;SDS011;62201;49.966;8.342;2024-03-23T07:17:47;9.47;;;1.40;;
61640;SDS011;62201;49.966;8.342;2024-03-23T07:20:13;6.60;;;1.40;;
61640;SDS011;62201;49.966;8.342;2024-03-23T07:22:39;3.97;;;1.23;;
61640;SDS011;62201;49.966;8.342;2024-03-23T07:25:04;7.00;;;1.60;;
61640;SDS011;62201;49.966;8.342;2024-03-23T07:27:30;4.03;;;1.20;;
61640;SDS011;62201;49.966;8.342;2024-03-23T07:29:55;6.87;;;1.77;;
61640;SDS011;62201;49.966;8.342;2024-03-23T07:32:21;6.97;;;1.70;;
61640;SDS011;62201;49.966;8.342;2024-03-23T07:34:46;5.70;;;1.50;;
61640;SDS011;62201;49.966;8.342;2024-03-23T07:37:12;3.53;;;1.47;;
61640;SDS011;62201;49.966;8.342;2024-03-23T07:39:37;8.00;;;2.27;;
61640;SDS011;62201;49.966;8.342;2024-03-23T07:42:04;3.60;;;1.57;;
61640;SDS011;62201;49.966;8.342;2024-03-23T07:44:30;8.00;;;2.00;;
61640;SDS011;62201;49.966;8.342;2024-03-23T07:46:55;6.03;;;1.77;;
61640;SDS011;62201;49.966;8.342;2024-03-23T07:49:21;6.07;;;2.00;;
61640;SDS011;62201;49.966;8.342;2024-03-23T07:51:46;5.57;;;2.20;;
61640;SDS011;62201;49.966;8.342;2024-03-23T07:54:11;5.13;;;1.87;;
61640;SDS011;62201;49.966;8.342;2024-03-23T07:56:37;5.83;;;2.30;;
61640;SDS011;62201;49.966;8.342;2024-03-23T07:59:02;4.10;;;2.00;;
61640;SDS011;62201;49.966;8.342;2024-03-23T08:01:30;6.67;;;2.03;;
61640;SDS011;62201;49.966;8.342;2024-03-23T08:03:56;5.43;;;2.00;;
61640;SDS011;62201;49.966;8.342;2024-03-23T08:06:21;6.47;;;2.10;;
61640;SDS011;62201;49.966;8.342;2024-03-23T08:08:48;7.60;;;2.77;;
61640;SDS011;62201;49.966;8.342;2024-03-23T08:11:24;4.80;;;2.13;;
61640;SDS011;62201;49.966;8.342;2024-03-23T08:13:54;11.98;;;2.80;;
61640;SDS011;62201;49.966;8.342;2024-03-23T08:16:20;7.85;;;2.63;;
61640;SDS011;62201;49.966;8.342;2024-03-23T08:18:46;6.38;;;2.13;;
61640;SDS011;62201;49.966;8.342;2024-03-23T08:21:12;9.65;;;2.50;;
61640;SDS011;62201;49.966;8.342;2024-03-23T08:23:37;8.00;;;2.80;;
61640;SDS011;62201;49.966;8.342;2024-03-23T08:26:05;7.45;;;2.28;;
61640;SDS011;62201;49.966;8.342;2024-03-23T08:28:31;9.23;;;2.40;;
61640;SDS011;62201;49.966;8.342;2024-03-23T08:30:57;9.60;;;2.92;;
61640;SDS011;62201;49.966;8.342;2024-03-23T08:33:26;7.88;;;2.53;;
61640;SDS011;62201;49.966;8.342;2024-03-23T08:35:54;6.60;;;2.30;;
61640;SDS011;62201;49.966;8.342;2024-03-23T08:38:21;10.60;;;2.78;;
61640;SDS011;62201;49.966;8.342;2024-03-23T08:40:47;9.48;;;2.65;;
61640;SDS011;62201;49.966;8.342;2024-03-23T08:43:13;13.05;;;3.33;;
61640;SDS011;62201;49.966;8.342;2024-03-23T08:45:38;9.50;;;2.50;;
61640;SDS011;62201;49.966;8.342;2024-03-23T08:48:03;8.77;;;2.72;;
61640;SDS011;62201;49.966;8.342;2024-03-23T08:50:29;8.30;;;2.53;;
61640;SDS011;62201;49.966;8.342;2024-03-23T08:52:54;7.30;;;2.83;;
61640;SDS011;62201;49.966;8.342;2024-03-23T08:55:20;8.27;;;2.88;;
61640;SDS011;62201;49.966;8.342;2024-03-23T08:57:45;10.95;;;3.10;;
61640;SDS011;62201;49.966;8.342;2024-03-23T09:00:11;9.80;;;3.13;;
61640;SDS011;62201;49.966;8.342;2024-03-23T09:02:37;10.85;;;3.22;;
61640;SDS011;62201;49.966;8.342;2024-03-23T09:05:02;11.35;;;3.63;;
61640;SDS011;62201;49.966;8.342;2024-03-23T09:07:32;10.75;;;3.33;;
61640;SDS011;62201;49.966;8.342;2024-03-23T09:09:57;11.90;;;3.33;;
61640;SDS011;62201;49.966;8.342;2024-03-23T09:12:23;12.07;;;3.38;;
61640;SDS011;62201;49.966;8.342;2024-03-23T09:14:49;9.35;;;3.22;;
61640;SDS011;62201;49.966;8.342;2024-03-23T09:17:15;9.80;;;2.80;;
61640;SDS011;62201;49.966;8.342;2024-03-23T09:19:40;9.43;;;2.85;;
61640;SDS011;62201;49.966;8.342;2024-03-23T09:22:06;11.75;;;2.97;;
61640;SDS011;62201;49.966;8.342;2024-03-23T09:24:31;9.63;;;2.97;;
61640;SDS011;62201;49.966;8.342;2024-03-23T09:26:57;10.95;;;2.80;;
61640;SDS011;62201;49.966;8.342;2024-03-23T09:29:22;11.35;;;2.40;;
61640;SDS011;62201;49.966;8.342;2024-03-23T09:31:48;8.32;;;2.50;;
61640;SDS011;62201;49.966;8.342;2024-03-23T09:34:13;7.55;;;2.03;;
61640;SDS011;62201;49.966;8.342;2024-03-23T09:36:39;9.70;;;2.20;;
61640;SDS011;62201;49.966;8.342;2024-03-23T09:39:04;12.07;;;2.40;;
61640;SDS011;62201;49.966;8.342;2024-03-23T09:41:31;7.80;;;2.15;;
61640;SDS011;62201;49.966;8.342;2024-03-23T09:43:57;8.23;;;2.25;;
61640;SDS011;62201;49.966;8.342;2024-03-23T09:46:22;8.63;;;2.15;;
61640;SDS011;62201;49.966;8.342;2024-03-23T09:48:48;7.80;;;2.22;;
61640;SDS011;62201;49.966;8.342;2024-03-23T09:51:13;10.70;;;2.05;;
61640;SDS011;62201;49.966;8.342;2024-03-23T09:53:39;11.00;;;2.28;;
61640;SDS011;62201;49.966;8.342;2024-03-23T09:56:04;8.85;;;2.30;;
61640;SDS011;62201;49.966;8.342;2024-03-23T09:58:30;7.25;;;1.77;;
61640;SDS011;62201;49.966;8.342;2024-03-23T10:00:57;8.57;;;2.13;;
61640;SDS011;62201;49.966;8.342;2024-03-23T10:03:22;9.38;;;2.28;;
61640;SDS011;62201;49.966;8.342;2024-03-23T10:05:48;9.80;;;1.83;;
61640;SDS011;62201;49.966;8.342;2024-03-23T10:08:25;10.80;;;1.98;;
61640;SDS011;62201;49.966;8.342;2024-03-23T10:10:53;10.23;;;2.05;;
61640;SDS011;62201;49.966;8.342;2024-03-23T10:13:25;5.57;;;1.63;;
61640;SDS011;62201;49.966;8.342;2024-03-23T10:18:21;10.50;;;1.88;;
61640;SDS011;62201;49.966;8.342;2024-03-23T10:21:09;7.90;;;1.83;;
61640;SDS011;62201;49.966;8.342;2024-03-23T10:23:36;10.65;;;2.25;;
61640;SDS011;62201;49.966;8.342;2024-03-23T10:26:12;8.07;;;2.30;;
61640;SDS011;62201;49.966;8.342;2024-03-23T10:28:59;8.35;;;2.20;;
61640;SDS011;62201;49.966;8.342;2024-03-23T10:31:32;7.75;;;1.77;;
61640;SDS011;62201;49.966;8.342;2024-03-23T10:33:57;8.45;;;1.48;;
61640;SDS011;62201;49.966;8.342;2024-03-23T10:36:23;7.75;;;1.17;;
61640;SDS011;62201;49.966;8.342;2024-03-23T10:38:51;10.27;;;1.30;;
61640;SDS011;62201;49.966;8.342;2024-03-23T10:41:17;7.23;;;1.17;;
61640;SDS011;62201;49.966;8.342;2024-03-23T10:43:44;7.67;;;1.30;;
61640;SDS011;62201;49.966;8.342;2024-03-23T10:46:11;9.87;;;2.07;;
61640;SDS011;62201;49.966;8.342;2024-03-23T10:48:36;8.33;;;1.90;;
61640;SDS011;62201;49.966;8.342;2024-03-23T10:51:03;7.03;;;1.40;;
61640;SDS011;62201;49.966;8.342;2024-03-23T10:53:29;6.57;;;1.87;;
61640;SDS011;62201;49.966;8.342;2024-03-23T10:55:57;7.50;;;1.50;;
61640;SDS011;62201;49.966;8.342;2024-03-23T10:58:24;6.23;;;1.80;;
61640;SDS011;62201;49.966;8.342;2024-03-23T11:00:53;8.80;;;2.27;;
61640;SDS011;62201;49.966;8.342;2024-03-23T11:03:35;9.47;;;1.60;;
61640;SDS011;62201;49.966;8.342;2024-03-23T11:06:02;7.93;;;1.83;;
61640;SDS011;62201;49.966;8.342;2024-03-23T11:13:50;9.17;;;1.60;;
61640;SDS011;62201;49.966;8.342;2024-03-23T11:16:17;5.13;;;0.90;;
61640;SDS011;62201;49.966;8.342;2024-03-23T11:18:52;3.83;;;0.80;;
61640;SDS011;62201;49.966;8.342;2024-03-23T11:24:19;3.50;;;0.77;;
61640;SDS011;62201;49.966;8.342;2024-03-23T11:26:45;3.07;;;0.70;;
61640;SDS011;62201;49.966;8.342;2024-03-23T11:29:12;2.03;;;0.60;;
61640;SDS011;62201;49.966;8.342;2024-03-23T11:31:38;1.63;;;0.30;;
61640;SDS011;62201;49.966;8.342;2024-03-23T11:34:04;3.83;;;0.57;;
61640;SDS011;62201;49.966;8.342;2024-03-23T11:36:30;3.20;;;0.60;;
61640;SDS011;62201;49.966;8.342;2024-03-23T11:38:56;6.03;;;0.90;;
61640;SDS011;62201;49.966;8.342;2024-03-23T11:41:21;5.23;;;0.93;;
61640;SDS011;62201;49.966;8.342;2024-03-23T11:43:47;5.85;;;1.10;;
61640;SDS011;62201;49.966;8.342;2024-03-23T11:46:18;5.32;;;1.90;;
61640;SDS011;62201;49.966;8.342;2024-03-23T11:48:50;7.65;;;2.17;;
61640;SDS011;62201;49.966;8.342;2024-03-23T11:51:16;10.57;;;2.70;;
61640;SDS011;62201;49.966;8.342;2024-03-23T11:53:42;9.77;;;3.40;;
61640;SDS011;62201;49.966;8.342;2024-03-23T11:56:07;10.52;;;3.10;;
61640;SDS011;62201;49.966;8.342;2024-03-23T11:58:34;9.02;;;2.72;;
61640;SDS011;62201;49.966;8.342;2024-03-23T12:01:00;12.02;;;2.95;;
61640;SDS011;62201;49.966;8.342;2024-03-23T12:03:28;7.75;;;2.40;;
61640;SDS011;62201;49.966;8.342;2024-03-23T12:05:55;9.30;;;2.40;;
61640;SDS011;62201;49.966;8.342;2024-03-23T12:08:31;8.00;;;2.30;;
61640;SDS011;62201;49.966;8.342;2024-03-23T12:11:05;8.50;;;2.10;;
61640;SDS011;62201;49.966;8.342;2024-03-23T12:13:37;5.95;;;2.03;;
61640;SDS011;62201;49.966;8.342;2024-03-23T12:16:08;7.20;;;2.20;;
61640;SDS011;62201;49.966;8.342;2024-03-23T12:18:37;7.78;;;2.60;;
61640;SDS011;62201;49.966;8.342;2024-03-23T12:21:03;8.93;;;2.22;;
61640;SDS011;62201;49.966;8.342;2024-03-23T12:23:29;4.15;;;1.60;;
61640;SDS011;62201;49.966;8.342;2024-03-23T12:25:54;8.18;;;2.05;;
61640;SDS011;62201;49.966;8.342;2024-03-23T12:28:20;5.88;;;1.67;;
61640;SDS011;62201;49.966;8.342;2024-03-23T12:30:46;6.03;;;1.98;;
61640;SDS011;62201;49.966;8.342;2024-03-23T12:33:11;8.70;;;1.70;;
61640;SDS011;62201;49.966;8.342;2024-03-23T12:35:36;6.72;;;1.90;;
61640;SDS011;62201;49.966;8.342;2024-03-23T12:38:03;7.10;;;1.58;;
61640;SDS011;62201;49.966;8.342;2024-03-23T12:40:29;6.72;;;1.88;;
61640;SDS011;62201;49.966;8.342;2024-03-23T12:42:54;5.00;;;1.70;;
61640;SDS011;62201;49.966;8.342;2024-03-23T12:45:21;4.78;;;1.65;;
61640;SDS011;62201;49.966;8.342;2024-03-23T12:47:46;6.18;;;1.50;;
61640;SDS011;62201;49.966;8.342;2024-03-23T12:50:12;5.50;;;1.52;;
61640;SDS011;62201;49.966;8.342;2024-03-23T12:52:37;4.43;;;1.10;;
61640;SDS011;62201;49.966;8.342;2024-03-23T12:55:03;2.53;;;0.70;;
61640;SDS011;62201;49.966;8.342;2024-03-23T12:57:31;7.28;;;0.77;;
61640;SDS011;62201;49.966;8.342;2024-03-23T12:59:57;4.03;;;0.93;;
61640;SDS011;62201;49.966;8.342;2024-03-23T13:02:22;3.73;;;0.70;;
61640;SDS011;62201;49.966;8.342;2024-03-23T13:04:54;1.27;;;0.53;;
61640;SDS011;62201;49.966;8.342;2024-03-23T13:07:20;2.75;;;0.60;;
61640;SDS011;62201;49.966;8.342;2024-03-23T13:09:47;1.80;;;0.60;;
61640;SDS011;62201;49.966;8.342;2024-03-23T13:12:14;3.37;;;0.60;;
61640;SDS011;62201;49.966;8.342;2024-03-23T13:14:40;2.03;;;0.77;;
61640;SDS011;62201;49.966;8.342;2024-03-23T13:17:05;3.00;;;0.50;;
61640;SDS011;62201;49.966;8.342;2024-03-23T13:19:32;2.40;;;0.50;;
61640;SDS011;62201;49.966;8.342;2024-03-23T13:21:57;2.83;;;0.57;;
61640;SDS011;62201;49.966;8.342;2024-03-23T13:24:26;2.13;;;0.90;;
61640;SDS011;62201;49.966;8.342;2024-03-23T13:26:53;2.93;;;0.60;;
61640;SDS011;62201;49.966;8.342;2024-03-23T13:29:19;1.43;;;0.50;;
61640;SDS011;62201;49.966;8.342;2024-03-23T13:31:45;1.75;;;0.63;;
61640;SDS011;62201;49.966;8.342;2024-03-23T13:34:11;3.85;;;0.98;;
61640;SDS011;62201;49.966;8.342;2024-03-23T13:36:39;1.05;;;0.50;;
61640;SDS011;62201;49.966;8.342;2024-03-23T13:39:05;0.68;;;0.38;;
61640;SDS011;62201;49.966;8.342;2024-03-23T13:41:36;1.95;;;0.38;;
61640;SDS011;62201;49.966;8.342;2024-03-23T13:44:02;1.13;;;0.40;;
61640;SDS011;62201;49.966;8.342;2024-03-23T13:46:28;1.00;;;0.35;;
61640;SDS011;62201;49.966;8.342;2024-03-23T13:48:53;1.50;;;0.30;;
61640;SDS011;62201;49.966;8.342;2024-03-23T13:51:22;2.20;;;0.77;;
61640;SDS011;62201;49.966;8.342;2024-03-23T13:53:49;2.15;;;0.55;;
61640;SDS011;62201;49.966;8.342;2024-03-23T13:56:14;2.35;;;0.77;;
61640;SDS011;62201;49.966;8.342;2024-03-23T13:58:40;2.55;;;1.00;;
61640;SDS011;62201;49.966;8.342;2024-03-23T14:01:10;4.65;;;1.23;;
61640;SDS011;62201;49.966;8.342;2024-03-23T14:03:36;2.30;;;0.70;;
61640;SDS011;62201;49.966;8.342;2024-03-23T14:06:01;2.00;;;1.00;;
61640;SDS011;62201;49.966;8.342;2024-03-23T14:08:28;1.00;;;0.55;;
61640;SDS011;62201;49.966;8.342;2024-03-23T14:10:53;2.70;;;1.40;;
61640;SDS011;62201;49.966;8.342;2024-03-23T14:13:19;2.95;;;1.08;;
61640;SDS011;62201;49.966;8.342;2024-03-23T14:15:45;4.20;;;1.00;;
61640;SDS011;62201;49.966;8.342;2024-03-23T14:18:10;1.08;;;0.70;;
61640;SDS011;62201;49.966;8.342;2024-03-23T14:20:35;2.53;;;0.60;;
61640;SDS011;62201;49.966;8.342;2024-03-23T14:23:01;1.23;;;0.40;;
61640;SDS011;62201;49.966;8.342;2024-03-23T14:25:26;4.03;;;0.60;;
61640;SDS011;62201;49.966;8.342;2024-03-23T14:27:52;1.27;;;0.57;;
61640;SDS011;62201;49.966;8.342;2024-03-23T14:30:17;4.57;;;1.00;;
61640;SDS011;62201;49.966;8.342;2024-03-23T14:32:43;2.17;;;0.80;;
61640;SDS011;62201;49.966;8.342;2024-03-23T14:35:08;4.93;;;0.80;;
61640;SDS011;62201;49.966;8.342;2024-03-23T14:37:36;1.08;;;0.57;;
61640;SDS011;62201;49.966;8.342;2024-03-23T14:40:02;1.50;;;0.60;;
61640;SDS011;62201;49.966;8.342;2024-03-23T14:42:28;1.85;;;0.80;;
61640;SDS011;62201;49.966;8.342;2024-03-23T14:44:54;2.00;;;0.70;;
61640;SDS011;62201;49.966;8.342;2024-03-23T14:47:19;1.48;;;0.68;;
61640;SDS011;62201;49.966;8.342;2024-03-23T14:49:45;2.55;;;0.60;;
61640;SDS011;62201;49.966;8.342;2024-03-23T14:52:12;1.52;;;0.50;;
61640;SDS011;62201;49.966;8.342;2024-03-23T14:54:38;1.90;;;0.60;;
61640;SDS011;62201;49.966;8.342;2024-03-23T14:57:04;2.72;;;0.98;;
61640;SDS011;62201;49.966;8.342;2024-03-23T14:59:29;3.55;;;0.98;;
61640;SDS011;62201;49.966;8.342;2024-03-23T15:01:55;3.22;;;1.15;;
61640;SDS011;62201;49.966;8.342;2024-03-23T15:04:21;2.85;;;0.77;;
61640;SDS011;62201;49.966;8.342;2024-03-23T15:06:46;3.20;;;0.80;;
61640;SDS011;62201;49.966;8.342;2024-03-23T15:09:14;1.60;;;0.60;;
61640;SDS011;62201;49.966;8.342;2024-03-23T15:11:40;2.40;;;0.60;;
61640;SDS011;62201;49.966;8.342;2024-03-23T15:14:05;3.85;;;0.77;;
61640;SDS011;62201;49.966;8.342;2024-03-23T15:16:32;3.58;;;0.70;;
61640;SDS011;62201;49.966;8.342;2024-03-23T15:18:57;2.22;;;0.60;;
61640;SDS011;62201;49.966;8.342;2024-03-23T15:21:23;2.13;;;0.63;;
61640;SDS011;62201;49.966;8.342;2024-03-23T15:23:48;2.80;;;0.50;;
61640;SDS011;62201;49.966;8.342;2024-03-23T15:26:13;2.63;;;0.82;;
61640;SDS011;62201;49.966;8.342;2024-03-23T15:28:40;3.15;;;0.70;;
61640;SDS011;62201;49.966;8.342;2024-03-23T15:31:21;1.77;;;0.40;;
61640;SDS011;62201;49.966;8.342;2024-03-23T15:33:46;1.13;;;0.55;;
61640;SDS011;62201;49.966;8.342;2024-03-23T15:36:12;2.10;;;0.60;;
61640;SDS011;62201;49.966;8.342;2024-03-23T15:38:37;3.17;;;0.50;;
61640;SDS011;62201;49.966;8.342;2024-03-23T15:41:03;1.33;;;0.40;;